Terminal Aerodrome Forecast
Issued by NWS

Home | Current Version | Previous Version | Text Only | Print | Product List | Glossary Off
Versions: 1 2 3 4 5 6 7 8 9 10 11 12 13 14 15 16 17 18 19

000
FTUS43 KMPX 221330 AAA
TAFRWF
TAF AMD
KRWF 221330Z 2214/2312 33015G23KT P6SM VCSH BKN025
      TEMPO 2214/2216 BKN015
     FM221600 34013G19KT P6SM SCT020 BKN035
     FM221900 35012KT P6SM SCT035
     FM230000 34007KT P6SM FEW250=

USA.gov is the U.S. government's official web portal to all federal, state and local government web resources and services.